EZY57HU LEBL-EGKK
Flight info
| Callsign | EZY57HU |
|---|---|
| Flight time | 1h 47m |
| Altitude | 34000 |
| Route | NATPI DCT EVNAM DCT AGN DCT SECHE DCT UVELI DCT CNA DCT MANAK DCT EPAPU UM184 EKRAS UT507 REVTU UP88 VASUX |
| Aircraft | A319/M-SDE2E3FGIJ1RWXYZ/LB1 |
Departure
| Time | 2026-05-04 15:58 |
|---|---|
| Airport | Josep Tarradellas Barcelona-El Prat Airport (LEBL) |
Arrival
| Time | 2026-05-04 17:45 |
|---|---|
| Airport | London Gatwick Airport (EGKK) |
| Time | Latitude | Longitude | Altitude | Speed | Heading |
|---|---|---|---|---|---|
| 2026-05-04 15:11 | 41.30489 | 2.08380 | 24 ft | 0 kts | 245° |
| 2026-05-04 15:36 | 41.30495 | 2.08395 | 24 ft | 2 kts | 245° |
| 2026-05-04 15:36 | 41.30503 | 2.08411 | 24 ft | 2 kts | 218° |
| 2026-05-04 15:36 | 41.30517 | 2.08421 | 24 ft | 2 kts | 197° |
| 2026-05-04 15:37 | 41.30532 | 2.08424 | 24 ft | 2 kts | 176° |
| 2026-05-04 15:37 | 41.30544 | 2.08421 | 24 ft | 0 kts | 158° |
| 2026-05-04 15:37 | 41.30550 | 2.08417 | 24 ft | 1 kts | 154° |
| 2026-05-04 15:37 | 41.30551 | 2.08417 | 24 ft | 0 kts | 154° |
| 2026-05-04 15:40 | 41.30548 | 2.08418 | 24 ft | 1 kts | 154° |
| 2026-05-04 15:40 | 41.30522 | 2.08435 | 24 ft | 6 kts | 155° |
| 2026-05-04 15:40 | 41.30463 | 2.08470 | 24 ft | 10 kts | 155° |
| 2026-05-04 15:40 | 41.30389 | 2.08515 | 24 ft | 12 kts | 154° |
| 2026-05-04 15:41 | 41.30309 | 2.08562 | 23 ft | 10 kts | 166° |
| 2026-05-04 15:41 | 41.30253 | 2.08501 | 23 ft | 12 kts | 246° |
| 2026-05-04 15:41 | 41.30215 | 2.08391 | 23 ft | 13 kts | 246° |
| 2026-05-04 15:41 | 41.30178 | 2.08282 | 23 ft | 12 kts | 245° |
| 2026-05-04 15:42 | 41.30140 | 2.08169 | 23 ft | 14 kts | 244° |
| 2026-05-04 15:42 | 41.30107 | 2.08074 | 23 ft | 10 kts | 246° |
| 2026-05-04 15:42 | 41.30073 | 2.07976 | 23 ft | 12 kts | 246° |
| 2026-05-04 15:42 | 41.30033 | 2.07864 | 23 ft | 14 kts | 248° |
| 2026-05-04 15:43 | 41.29991 | 2.07739 | 23 ft | 15 kts | 246° |
| 2026-05-04 15:43 | 41.29950 | 2.07606 | 23 ft | 15 kts | 241° |
| 2026-05-04 15:43 | 41.29898 | 2.07460 | 23 ft | 20 kts | 248° |
| 2026-05-04 15:43 | 41.29834 | 2.07278 | 23 ft | 22 kts | 245° |
| 2026-05-04 15:44 | 41.29774 | 2.07085 | 23 ft | 22 kts | 246° |
| 2026-05-04 15:44 | 41.29711 | 2.06902 | 23 ft | 21 kts | 245° |
| 2026-05-04 15:44 | 41.29649 | 2.06722 | 23 ft | 21 kts | 245° |
| 2026-05-04 15:44 | 41.29588 | 2.06545 | 23 ft | 22 kts | 246° |
| 2026-05-04 15:45 | 41.29520 | 2.06348 | 23 ft | 24 kts | 245° |
| 2026-05-04 15:45 | 41.29461 | 2.06175 | 23 ft | 11 kts | 244° |
| 2026-05-04 15:45 | 41.29434 | 2.06126 | 23 ft | 7 kts | 204° |
| 2026-05-04 15:45 | 41.29378 | 2.06123 | 23 ft | 9 kts | 179° |
| 2026-05-04 15:46 | 41.29300 | 2.06143 | 23 ft | 10 kts | 156° |
| 2026-05-04 15:46 | 41.29285 | 2.06152 | 23 ft | 0 kts | 155° |
| 2026-05-04 15:47 | 41.29276 | 2.06157 | 23 ft | 5 kts | 154° |
| 2026-05-04 15:48 | 41.29205 | 2.06201 | 23 ft | 16 kts | 154° |
| 2026-05-04 15:48 | 41.29080 | 2.06279 | 23 ft | 21 kts | 146° |
| 2026-05-04 15:48 | 41.29031 | 2.06628 | 23 ft | 19 kts | 62° |
| 2026-05-04 15:49 | 41.29090 | 2.06801 | 23 ft | 21 kts | 67° |
| 2026-05-04 15:49 | 41.29155 | 2.06989 | 23 ft | 23 kts | 64° |
| 2026-05-04 15:49 | 41.29223 | 2.07187 | 23 ft | 24 kts | 64° |
| 2026-05-04 15:49 | 41.29292 | 2.07389 | 23 ft | 23 kts | 70° |
| 2026-05-04 15:50 | 41.29354 | 2.07588 | 23 ft | 22 kts | 70° |
| 2026-05-04 15:50 | 41.29417 | 2.07778 | 23 ft | 22 kts | 66° |
| 2026-05-04 15:50 | 41.29480 | 2.07964 | 23 ft | 21 kts | 66° |
| 2026-05-04 15:50 | 41.29542 | 2.08144 | 23 ft | 21 kts | 65° |
| 2026-05-04 15:51 | 41.29578 | 2.08326 | 23 ft | 18 kts | 70° |
| 2026-05-04 15:51 | 41.29623 | 2.08470 | 23 ft | 13 kts | 86° |
| 2026-05-04 15:51 | 41.29559 | 2.08555 | 23 ft | 14 kts | 156° |
| 2026-05-04 15:51 | 41.29462 | 2.08612 | 23 ft | 16 kts | 155° |
| 2026-05-04 15:52 | 41.29356 | 2.08677 | 23 ft | 17 kts | 156° |
| 2026-05-04 15:52 | 41.29242 | 2.08746 | 23 ft | 18 kts | 155° |
| 2026-05-04 15:52 | 41.29128 | 2.08814 | 23 ft | 13 kts | 155° |
| 2026-05-04 15:52 | 41.29051 | 2.08860 | 23 ft | 12 kts | 156° |
| 2026-05-04 15:53 | 41.28967 | 2.08911 | 23 ft | 13 kts | 153° |
| 2026-05-04 15:53 | 41.28958 | 2.09012 | 23 ft | 12 kts | 65° |
| 2026-05-04 15:53 | 41.28995 | 2.09120 | 23 ft | 13 kts | 66° |
| 2026-05-04 15:53 | 41.29034 | 2.09234 | 23 ft | 14 kts | 65° |
| 2026-05-04 15:54 | 41.29079 | 2.09364 | 23 ft | 18 kts | 64° |
| 2026-05-04 15:54 | 41.29135 | 2.09526 | 23 ft | 20 kts | 65° |
| 2026-05-04 15:54 | 41.29193 | 2.09695 | 23 ft | 16 kts | 65° |
| 2026-05-04 15:54 | 41.29235 | 2.09818 | 23 ft | 14 kts | 65° |
| 2026-05-04 15:55 | 41.29284 | 2.09941 | 23 ft | 15 kts | 54° |
| 2026-05-04 15:55 | 41.29325 | 2.10053 | 23 ft | 12 kts | 80° |
| 2026-05-04 15:55 | 41.29303 | 2.10162 | 23 ft | 10 kts | 111° |
| 2026-05-04 15:55 | 41.29297 | 2.10183 | 23 ft | 0 kts | 110° |
| 2026-05-04 15:56 | 41.29297 | 2.10186 | 23 ft | 2 kts | 109° |
| 2026-05-04 15:56 | 41.29277 | 2.10258 | 23 ft | 8 kts | 113° |
| 2026-05-04 15:56 | 41.29225 | 2.10307 | 23 ft | 11 kts | 194° |
| 2026-05-04 15:57 | 41.29177 | 2.10205 | 23 ft | 22 kts | 248° |
| 2026-05-04 15:57 | 41.29002 | 2.09686 | 24 ft | 98 kts | 245° |
| 2026-05-04 15:57 | 41.28629 | 2.08595 | 32 ft | 158 kts | 243° |
| 2026-05-04 15:57 | 41.28149 | 2.07235 | 606 ft | 163 kts | 244° |
| 2026-05-04 15:58 | 41.27547 | 2.06018 | 1344 ft | 162 kts | 225° |
| 2026-05-04 15:58 | 41.26691 | 2.05078 | 2038 ft | 165 kts | 210° |
| 2026-05-04 15:58 | 41.25588 | 2.04455 | 2540 ft | 180 kts | 194° |
| 2026-05-04 15:58 | 41.24303 | 2.04284 | 3018 ft | 196 kts | 178° |
| 2026-05-04 15:59 | 41.22873 | 2.04485 | 3412 ft | 218 kts | 178° |
| 2026-05-04 15:59 | 41.21360 | 2.04378 | 4109 ft | 223 kts | 189° |
| 2026-05-04 15:59 | 41.19842 | 2.04052 | 4979 ft | 223 kts | 196° |
| 2026-05-04 15:59 | 41.18480 | 2.03162 | 5786 ft | 221 kts | 223° |
| 2026-05-04 16:00 | 41.17466 | 2.01636 | 6495 ft | 226 kts | 233° |
| 2026-05-04 16:00 | 41.16510 | 1.99966 | 7279 ft | 230 kts | 233° |
| 2026-05-04 16:00 | 41.15544 | 1.98276 | 8108 ft | 232 kts | 233° |
| 2026-05-04 16:00 | 41.14582 | 1.96612 | 8947 ft | 232 kts | 232° |
| 2026-05-04 16:01 | 41.13681 | 1.94843 | 9752 ft | 234 kts | 240° |
| 2026-05-04 16:01 | 41.13023 | 1.92861 | 10459 ft | 241 kts | 249° |
| 2026-05-04 16:01 | 41.12506 | 1.90718 | 11069 ft | 250 kts | 250° |
| 2026-05-04 16:01 | 41.12001 | 1.88508 | 11786 ft | 254 kts | 251° |
| 2026-05-04 16:02 | 41.11575 | 1.86242 | 12522 ft | 259 kts | 261° |
| 2026-05-04 16:02 | 41.11676 | 1.83824 | 13205 ft | 269 kts | 279° |
| 2026-05-04 16:02 | 41.13048 | 1.78885 | 13937 ft | 305 kts | 289° |
| 2026-05-04 16:03 | 41.14189 | 1.76412 | 14221 ft | 329 kts | 306° |
| 2026-05-04 16:03 | 41.15961 | 1.74376 | 14681 ft | 348 kts | 323° |
| 2026-05-04 16:03 | 41.18067 | 1.72767 | 15354 ft | 353 kts | 326° |
| 2026-05-04 16:03 | 41.20208 | 1.71220 | 15988 ft | 357 kts | 327° |
| 2026-05-04 16:04 | 41.22478 | 1.69747 | 16635 ft | 362 kts | 330° |
| 2026-05-04 16:04 | 41.27069 | 1.67001 | 17895 ft | 368 kts | 330° |
| 2026-05-04 16:04 | 41.29407 | 1.65599 | 18481 ft | 371 kts | 330° |
| 2026-05-04 16:05 | 41.31773 | 1.64175 | 18829 ft | 373 kts | 330° |
| 2026-05-04 16:05 | 41.34145 | 1.62740 | 18899 ft | 374 kts | 330° |
| 2026-05-04 16:05 | 41.38868 | 1.59874 | 18921 ft | 374 kts | 330° |
| 2026-05-04 16:06 | 41.41239 | 1.58429 | 19105 ft | 380 kts | 330° |
| 2026-05-04 16:06 | 41.47715 | 1.54488 | 20722 ft | 385 kts | 329° |
| 2026-05-04 16:07 | 41.50970 | 1.52503 | 21412 ft | 390 kts | 329° |
| 2026-05-04 16:07 | 41.58891 | 1.49250 | 22914 ft | 411 kts | 345° |
| 2026-05-04 16:08 | 41.61739 | 1.48614 | 23404 ft | 414 kts | 345° |
| 2026-05-04 16:08 | 41.70356 | 1.46757 | 24817 ft | 423 kts | 345° |
| 2026-05-04 16:09 | 41.76199 | 1.45464 | 25674 ft | 429 kts | 345° |
| 2026-05-04 16:09 | 41.82132 | 1.44143 | 26482 ft | 435 kts | 345° |
| 2026-05-04 16:10 | 41.88136 | 1.42798 | 27254 ft | 442 kts | 345° |
| 2026-05-04 16:11 | 41.97282 | 1.40747 | 28427 ft | 448 kts | 345° |
| 2026-05-04 16:11 | 42.00326 | 1.40066 | 28914 ft | 447 kts | 344° |
| 2026-05-04 16:12 | 42.09494 | 1.37999 | 30323 ft | 445 kts | 344° |
| 2026-05-04 16:12 | 42.18610 | 1.35946 | 31439 ft | 444 kts | 344° |
| 2026-05-04 16:13 | 42.24701 | 1.34566 | 32168 ft | 443 kts | 343° |
| 2026-05-04 16:13 | 42.30743 | 1.33166 | 32824 ft | 444 kts | 343° |
| 2026-05-04 16:14 | 42.36833 | 1.31762 | 33327 ft | 447 kts | 343° |
| 2026-05-04 16:14 | 42.43000 | 1.30354 | 33852 ft | 449 kts | 343° |
| 2026-05-04 16:15 | 42.52277 | 1.28229 | 33956 ft | 453 kts | 343° |
| 2026-05-04 16:16 | 42.58514 | 1.26797 | 33947 ft | 454 kts | 343° |
| 2026-05-04 16:17 | 42.74106 | 1.23350 | 33955 ft | 459 kts | 347° |
| 2026-05-04 16:18 | 42.86731 | 1.21638 | 33950 ft | 458 kts | 348° |
| 2026-05-04 16:19 | 43.02645 | 1.19457 | 33951 ft | 460 kts | 348° |
| 2026-05-04 16:20 | 43.18538 | 1.17261 | 33949 ft | 460 kts | 349° |
| 2026-05-04 16:22 | 43.34453 | 1.15044 | 33956 ft | 460 kts | 349° |
| 2026-05-04 16:23 | 43.53481 | 1.12339 | 33951 ft | 457 kts | 347° |
| 2026-05-04 16:24 | 43.65373 | 1.07206 | 33949 ft | 444 kts | 326° |
| 2026-05-04 16:25 | 43.70621 | 1.02912 | 33953 ft | 441 kts | 322° |
| 2026-05-04 16:26 | 43.88889 | 0.87392 | 33938 ft | 445 kts | 326° |
| 2026-05-04 16:28 | 44.02922 | 0.78237 | 33934 ft | 447 kts | 330° |
| 2026-05-04 16:29 | 44.22595 | 0.65519 | 33945 ft | 446 kts | 330° |
| 2026-05-04 16:31 | 44.36635 | 0.56341 | 33939 ft | 446 kts | 330° |
| 2026-05-04 16:32 | 44.53486 | 0.45252 | 33939 ft | 447 kts | 330° |
| 2026-05-04 16:33 | 44.64689 | 0.37803 | 33940 ft | 447 kts | 330° |
| 2026-05-04 16:34 | 44.73086 | 0.32174 | 33937 ft | 446 kts | 330° |
| 2026-05-04 16:35 | 44.89844 | 0.20896 | 33930 ft | 447 kts | 330° |
| 2026-05-04 16:36 | 44.98254 | 0.15216 | 33912 ft | 447 kts | 330° |
| 2026-05-04 16:37 | 45.06641 | 0.09540 | 33917 ft | 448 kts | 330° |
| 2026-05-04 16:38 | 45.17873 | 0.01948 | 33912 ft | 447 kts | 330° |
| 2026-05-04 16:39 | 45.31873 | -0.07595 | 33921 ft | 446 kts | 330° |
| 2026-05-04 16:40 | 45.43013 | -0.15242 | 33933 ft | 446 kts | 330° |
| 2026-05-04 16:41 | 45.56951 | -0.24866 | 33938 ft | 446 kts | 331° |
| 2026-05-04 16:43 | 45.70260 | -0.35831 | 33944 ft | 441 kts | 319° |
| 2026-05-04 16:43 | 45.77433 | -0.43966 | 33943 ft | 441 kts | 318° |
| 2026-05-04 16:45 | 45.91842 | -0.60331 | 33934 ft | 441 kts | 318° |
| 2026-05-04 16:46 | 46.03818 | -0.74033 | 33927 ft | 441 kts | 317° |
| 2026-05-04 16:47 | 46.13372 | -0.84982 | 33936 ft | 441 kts | 318° |
| 2026-05-04 16:48 | 46.21034 | -0.92379 | 33942 ft | 444 kts | 331° |
| 2026-05-04 16:48 | 46.23810 | -0.94195 | 33946 ft | 445 kts | 336° |
| 2026-05-04 16:49 | 46.35823 | -0.98652 | 33957 ft | 447 kts | 347° |
| 2026-05-04 16:50 | 46.48003 | -1.02330 | 33958 ft | 448 kts | 347° |
| 2026-05-04 16:51 | 46.57091 | -1.05129 | 33953 ft | 447 kts | 347° |
| 2026-05-04 16:52 | 46.69214 | -1.08885 | 33969 ft | 445 kts | 347° |
| 2026-05-04 16:53 | 46.78263 | -1.11701 | 33960 ft | 445 kts | 347° |
| 2026-05-04 16:54 | 46.90382 | -1.15488 | 33960 ft | 446 kts | 347° |
| 2026-05-04 16:55 | 47.08550 | -1.21196 | 33963 ft | 445 kts | 347° |
| 2026-05-04 16:56 | 47.23663 | -1.25962 | 33960 ft | 445 kts | 347° |
| 2026-05-04 16:57 | 47.32710 | -1.28836 | 33961 ft | 444 kts | 347° |
| 2026-05-04 16:58 | 47.44755 | -1.32684 | 33958 ft | 443 kts | 348° |
| 2026-05-04 17:00 | 47.62772 | -1.38483 | 33959 ft | 443 kts | 347° |
| 2026-05-04 17:01 | 47.77994 | -1.41710 | 33957 ft | 442 kts | 358° |
| 2026-05-04 17:02 | 47.90236 | -1.42578 | 33952 ft | 441 kts | 358° |
| 2026-05-04 17:03 | 47.99401 | -1.43276 | 33943 ft | 441 kts | 358° |
| 2026-05-04 17:03 | 48.08585 | -1.43937 | 33957 ft | 441 kts | 358° |
| 2026-05-04 17:04 | 48.20873 | -1.44799 | 33953 ft | 441 kts | 358° |
| 2026-05-04 17:05 | 48.33079 | -1.45679 | 33970 ft | 441 kts | 358° |
| 2026-05-04 17:06 | 48.42256 | -1.46343 | 33961 ft | 441 kts | 358° |
| 2026-05-04 17:07 | 48.50412 | -1.46937 | 33974 ft | 440 kts | 358° |
| 2026-05-04 17:07 | 48.57520 | -1.47457 | 33984 ft | 440 kts | 358° |
| 2026-05-04 17:08 | 48.66681 | -1.48131 | 33988 ft | 440 kts | 358° |
| 2026-05-04 17:09 | 48.72812 | -1.48585 | 33991 ft | 439 kts | 358° |
| 2026-05-04 17:09 | 48.78902 | -1.49042 | 33989 ft | 440 kts | 358° |
| 2026-05-04 17:10 | 48.94123 | -1.51112 | 33990 ft | 440 kts | 349° |
| 2026-05-04 17:11 | 49.00124 | -1.53046 | 33981 ft | 440 kts | 348° |
| 2026-05-04 17:12 | 49.09082 | -1.55967 | 33985 ft | 439 kts | 348° |
| 2026-05-04 17:13 | 49.23978 | -1.60781 | 33989 ft | 439 kts | 348° |
| 2026-05-04 17:14 | 49.35850 | -1.64648 | 33988 ft | 437 kts | 348° |
| 2026-05-04 17:15 | 49.44768 | -1.67601 | 33992 ft | 437 kts | 347° |
| 2026-05-04 17:16 | 49.56690 | -1.70906 | 33996 ft | 436 kts | 358° |
| 2026-05-04 17:16 | 49.65533 | -1.69322 | 34000 ft | 433 kts | 17° |
| 2026-05-04 17:17 | 49.68377 | -1.67885 | 34003 ft | 432 kts | 21° |
| 2026-05-04 17:17 | 49.76903 | -1.63071 | 32318 ft | 441 kts | 21° |
| 2026-05-04 17:18 | 49.79798 | -1.61446 | 31659 ft | 444 kts | 22° |
| 2026-05-04 17:18 | 49.85641 | -1.58186 | 30216 ft | 448 kts | 21° |
| 2026-05-04 17:19 | 49.91464 | -1.54941 | 28893 ft | 447 kts | 21° |
| 2026-05-04 17:19 | 49.97274 | -1.51698 | 27659 ft | 442 kts | 21° |
| 2026-05-04 17:20 | 50.03010 | -1.48670 | 26818 ft | 429 kts | 19° |
| 2026-05-04 17:20 | 50.08577 | -1.45971 | 25970 ft | 418 kts | 19° |
| 2026-05-04 17:20 | 50.11353 | -1.44626 | 25546 ft | 412 kts | 19° |
| 2026-05-04 17:21 | 50.16740 | -1.42009 | 24694 ft | 403 kts | 19° |
| 2026-05-04 17:21 | 50.22014 | -1.39423 | 23852 ft | 396 kts | 18° |
| 2026-05-04 17:22 | 50.24651 | -1.38123 | 23450 ft | 392 kts | 18° |
| 2026-05-04 17:22 | 50.27211 | -1.36865 | 23072 ft | 388 kts | 18° |
| 2026-05-04 17:23 | 50.34810 | -1.33103 | 21956 ft | 377 kts | 19° |
| 2026-05-04 17:23 | 50.37306 | -1.31858 | 21583 ft | 374 kts | 19° |
| 2026-05-04 17:23 | 50.42218 | -1.29419 | 20839 ft | 369 kts | 19° |
| 2026-05-04 17:24 | 50.44647 | -1.28212 | 20459 ft | 367 kts | 19° |
| 2026-05-04 17:24 | 50.51534 | -1.23670 | 19316 ft | 356 kts | 37° |
| 2026-05-04 17:25 | 50.53479 | -1.21301 | 18941 ft | 352 kts | 41° |
| 2026-05-04 17:25 | 50.57167 | -1.16391 | 18199 ft | 347 kts | 42° |
| 2026-05-04 17:26 | 50.60828 | -1.11534 | 17443 ft | 343 kts | 41° |
| 2026-05-04 17:26 | 50.66115 | -1.04169 | 16296 ft | 337 kts | 48° |
| 2026-05-04 17:27 | 50.69151 | -0.98578 | 15518 ft | 334 kts | 52° |
| 2026-05-04 17:27 | 50.72054 | -0.92960 | 14749 ft | 332 kts | 52° |
| 2026-05-04 17:28 | 50.74954 | -0.87354 | 13986 ft | 329 kts | 51° |
| 2026-05-04 17:29 | 50.79239 | -0.79056 | 13006 ft | 316 kts | 51° |
| 2026-05-04 17:29 | 50.81757 | -0.70180 | 12989 ft | 299 kts | 79° |
| 2026-05-04 17:30 | 50.82839 | -0.60516 | 12981 ft | 299 kts | 79° |
| 2026-05-04 17:31 | 50.83575 | -0.54055 | 12975 ft | 299 kts | 79° |
| 2026-05-04 17:31 | 50.84684 | -0.44382 | 12134 ft | 296 kts | 79° |
| 2026-05-04 17:32 | 50.85411 | -0.38044 | 11475 ft | 291 kts | 79° |
| 2026-05-04 17:33 | 50.87276 | -0.29187 | 10461 ft | 288 kts | 44° |
| 2026-05-04 17:33 | 50.88943 | -0.27547 | 10014 ft | 289 kts | 18° |
| 2026-05-04 17:34 | 50.94211 | -0.30515 | 8708 ft | 289 kts | 307° |
| 2026-05-04 17:34 | 50.95314 | -0.33170 | 8332 ft | 288 kts | 302° |
| 2026-05-04 17:35 | 50.98321 | -0.41155 | 7091 ft | 276 kts | 301° |
| 2026-05-04 17:35 | 51.00272 | -0.46397 | 6998 ft | 277 kts | 301° |
| 2026-05-04 17:35 | 51.01241 | -0.49004 | 6993 ft | 271 kts | 301° |
| 2026-05-04 17:36 | 51.02168 | -0.51501 | 6984 ft | 256 kts | 301° |
| 2026-05-04 17:36 | 51.03051 | -0.53882 | 6987 ft | 244 kts | 301° |
| 2026-05-04 17:36 | 51.03992 | -0.56128 | 6980 ft | 242 kts | 316° |
| 2026-05-04 17:36 | 51.05323 | -0.57478 | 6979 ft | 226 kts | 340° |
| 2026-05-04 17:37 | 51.06775 | -0.58221 | 6949 ft | 210 kts | 345° |
| 2026-05-04 17:37 | 51.08174 | -0.58811 | 6550 ft | 208 kts | 346° |
| 2026-05-04 17:37 | 51.09580 | -0.59378 | 6080 ft | 209 kts | 347° |
| 2026-05-04 17:37 | 51.10987 | -0.59943 | 5628 ft | 208 kts | 347° |
| 2026-05-04 17:38 | 51.12396 | -0.60364 | 5171 ft | 206 kts | 5° |
| 2026-05-04 17:38 | 51.13708 | -0.59630 | 4756 ft | 201 kts | 41° |
| 2026-05-04 17:38 | 51.14449 | -0.57828 | 4352 ft | 199 kts | 78° |
| 2026-05-04 17:38 | 51.14391 | -0.55674 | 3970 ft | 198 kts | 104° |
| 2026-05-04 17:39 | 51.13420 | -0.51602 | 3186 ft | 196 kts | 111° |
| 2026-05-04 17:39 | 51.12889 | -0.49657 | 3038 ft | 190 kts | 111° |
| 2026-05-04 17:39 | 51.12358 | -0.47734 | 3126 ft | 185 kts | 111° |
| 2026-05-04 17:40 | 51.11858 | -0.45958 | 3028 ft | 169 kts | 110° |
| 2026-05-04 17:40 | 51.11591 | -0.44245 | 2991 ft | 148 kts | 89° |
| 2026-05-04 17:40 | 51.11630 | -0.42685 | 2887 ft | 136 kts | 80° |
| 2026-05-04 17:40 | 51.11783 | -0.41247 | 2700 ft | 132 kts | 75° |
| 2026-05-04 17:41 | 51.11990 | -0.39725 | 2576 ft | 152 kts | 75° |
| 2026-05-04 17:41 | 51.12225 | -0.38022 | 2380 ft | 158 kts | 75° |
| 2026-05-04 17:41 | 51.12455 | -0.36321 | 2171 ft | 157 kts | 75° |
| 2026-05-04 17:41 | 51.12682 | -0.34629 | 1959 ft | 156 kts | 75° |
| 2026-05-04 17:42 | 51.12904 | -0.32984 | 1741 ft | 147 kts | 75° |
| 2026-05-04 17:42 | 51.13110 | -0.31467 | 1523 ft | 133 kts | 75° |
| 2026-05-04 17:42 | 51.13300 | -0.30081 | 1335 ft | 125 kts | 75° |
| 2026-05-04 17:42 | 51.13484 | -0.28735 | 1182 ft | 126 kts | 75° |
| 2026-05-04 17:43 | 51.13672 | -0.27365 | 1026 ft | 126 kts | 75° |
| 2026-05-04 17:43 | 51.13856 | -0.26005 | 864 ft | 126 kts | 75° |
| 2026-05-04 17:43 | 51.14041 | -0.24652 | 703 ft | 126 kts | 76° |
| 2026-05-04 17:43 | 51.14227 | -0.23293 | 531 ft | 126 kts | 76° |
| 2026-05-04 17:44 | 51.14417 | -0.21913 | 366 ft | 127 kts | 76° |
| 2026-05-04 17:44 | 51.14605 | -0.20557 | 228 ft | 127 kts | 77° |
| 2026-05-04 17:44 | 51.14793 | -0.19186 | 196 ft | 116 kts | 79° |
| 2026-05-04 17:44 | 51.14929 | -0.18197 | 196 ft | 63 kts | 77° |
| 2026-05-04 17:45 | 51.15036 | -0.17840 | 196 ft | 23 kts | 54° |
| 2026-05-04 17:45 | 51.15111 | -0.17754 | 195 ft | 10 kts | 347° |
| 2026-05-04 17:45 | 51.15132 | -0.17762 | 195 ft | 2 kts | 346° |
| 2026-05-04 17:45 | 51.15154 | -0.17768 | 195 ft | 4 kts | 353° |
| 2026-05-04 17:46 | 51.15168 | -0.17770 | 194 ft | 0 kts | 354° |
| 2026-05-04 17:46 | 51.15183 | -0.17773 | 194 ft | 8 kts | 352° |
| 2026-05-04 17:46 | 51.15237 | -0.17834 | 194 ft | 10 kts | 277° |
| 2026-05-04 17:46 | 51.15227 | -0.17951 | 194 ft | 9 kts | 263° |
| 2026-05-04 17:47 | 51.15248 | -0.18020 | 194 ft | 7 kts | 246° |
| 2026-05-04 17:47 | 51.15262 | -0.18104 | 194 ft | 10 kts | 333° |
| 2026-05-04 17:47 | 51.15348 | -0.18134 | 192 ft | 15 kts | 348° |
| 2026-05-04 17:47 | 51.15473 | -0.18181 | 192 ft | 20 kts | 345° |
| 2026-05-04 17:48 | 51.15614 | -0.18231 | 190 ft | 17 kts | 350° |
| 2026-05-04 17:48 | 51.15686 | -0.18130 | 190 ft | 13 kts | 95° |
| 2026-05-04 17:48 | 51.15692 | -0.17996 | 192 ft | 10 kts | 78° |
| 2026-05-04 17:48 | 51.15705 | -0.17903 | 192 ft | 9 kts | 77° |
| 2026-05-04 17:49 | 51.15720 | -0.17798 | 194 ft | 9 kts | 78° |
| 2026-05-04 17:49 | 51.15734 | -0.17693 | 196 ft | 10 kts | 77° |
| 2026-05-04 17:49 | 51.15752 | -0.17564 | 196 ft | 12 kts | 76° |
| 2026-05-04 17:49 | 51.15769 | -0.17435 | 198 ft | 12 kts | 80° |
| 2026-05-04 17:50 | 51.15788 | -0.17298 | 198 ft | 13 kts | 76° |
| 2026-05-04 17:50 | 51.15806 | -0.17167 | 198 ft | 7 kts | 79° |
| 2026-05-04 17:50 | 51.15835 | -0.17153 | 199 ft | 4 kts | 333° |
| 2026-05-04 17:50 | 51.15862 | -0.17174 | 199 ft | 3 kts | 336° |
| 2026-05-04 17:51 | 51.15880 | -0.17186 | 199 ft | 1 kts | 336° |
| 2026-05-04 17:51 | 51.15890 | -0.17193 | 199 ft | 0 kts | 336° |